Terminal Aerodrome Forecast
Issued by NWS

Home | Current Version | Previous Version | Text Only | Print | Product List | Glossary On
Versions: 1 2 3 4 5 6 7 8 9 10 11 12 13 14 15 16 17 18
000
FTUS45 KABQ 310700 AAA
TAFTCC
TAF AMD
KTCC 310758Z 3108/0106 16006KT 5SM -RA BR SCT015 OVC025
      TEMPO 3108/3112 2SM -RA BKN010 OVC015
     FM311300 VRB04KT 5SM -RA BR OVC020
     FM311700 20006KT P6SM VCSH OVC030
     FM312000 22010KT P6SM BKN030 OVC050=

USA.gov is the U.S. government's official web portal to all federal, state and local government web resources and services.